createdAt,value
2018-01-08T00:01:39.219Z,-2.00
2018-01-08T00:04:07.574Z,-2.10
2018-01-08T00:06:35.878Z,-2.10
2018-01-08T00:09:04.564Z,-2.20
2018-01-08T00:11:32.970Z,-2.20
2018-01-08T00:14:01.253Z,-2.20
2018-01-08T00:16:29.573Z,-2.20
2018-01-08T00:18:58.031Z,-2.20
2018-01-08T00:21:26.320Z,-2.20
2018-01-08T00:23:55.637Z,-2.20
2018-01-08T00:26:24.117Z,-2.30
2018-01-08T00:28:52.480Z,-2.20
2018-01-08T00:31:20.776Z,-2.30
2018-01-08T00:33:49.086Z,-2.20
2018-01-08T00:36:17.531Z,-2.20
2018-01-08T00:38:45.822Z,-2.20
2018-01-08T00:41:14.595Z,-2.20
2018-01-08T00:43:42.881Z,-2.30
2018-01-08T00:46:11.192Z,-2.30
2018-01-08T00:48:39.587Z,-2.30
2018-01-08T00:51:07.881Z,-2.30
2018-01-08T00:53:36.213Z,-2.40
2018-01-08T00:56:04.665Z,-2.30
2018-01-08T00:58:33.093Z,-2.30
2018-01-08T01:01:01.392Z,-2.30
2018-01-08T01:03:29.712Z,-2.40
2018-01-08T01:05:58.394Z,-2.40
2018-01-08T01:08:26.968Z,-2.40
2018-01-08T01:10:55.322Z,-2.30
2018-01-08T01:13:24.117Z,-2.30
2018-01-08T01:15:52.446Z,-2.30
2018-01-08T01:18:20.875Z,-2.30
2018-01-08T01:20:49.554Z,-2.40
2018-01-08T01:23:17.873Z,-2.40
2018-01-08T01:25:46.592Z,-2.40
2018-01-08T01:28:15.672Z,-2.40
2018-01-08T01:30:44.751Z,-2.40
2018-01-08T01:33:13.064Z,-2.30
2018-01-08T01:35:42.113Z,-2.40
2018-01-08T01:38:10.369Z,-2.40
2018-01-08T01:40:38.646Z,-2.40
2018-01-08T01:43:06.949Z,-2.40
2018-01-08T01:45:36.328Z,-2.30
2018-01-08T01:48:04.596Z,-2.40
2018-01-08T01:50:33.208Z,-2.40
2018-01-08T01:53:01.465Z,-2.50
2018-01-08T01:55:29.767Z,-2.60
2018-01-08T01:57:58.407Z,-2.50
2018-01-08T02:00:27.541Z,-2.40
2018-01-08T02:02:56.261Z,-2.40
2018-01-08T02:05:24.705Z,-2.40
2018-01-08T02:07:53.805Z,-2.50
2018-01-08T02:10:22.097Z,-2.40
2018-01-08T02:12:50.389Z,-2.50
2018-01-08T02:15:18.704Z,-2.50
2018-01-08T02:17:46.981Z,-2.60
2018-01-08T02:20:15.349Z,-2.60
2018-01-08T02:22:43.616Z,-2.60
2018-01-08T02:25:12.364Z,-2.60
2018-01-08T02:27:41.482Z,-2.60
2018-01-08T02:30:09.840Z,-2.50
2018-01-08T02:32:38.097Z,-2.50
2018-01-08T02:35:06.501Z,-2.50
2018-01-08T02:37:35.794Z,-2.50
2018-01-08T02:40:04.083Z,-2.60
2018-01-08T02:42:32.373Z,-2.60
2018-01-08T02:45:01.432Z,-2.60
2018-01-08T02:47:29.757Z,-2.70
2018-01-08T02:49:58.541Z,-2.70
2018-01-08T02:52:26.979Z,-2.80
2018-01-08T02:54:55.628Z,-2.70
2018-01-08T02:57:24.315Z,-2.80
2018-01-08T02:59:52.952Z,-2.70
2018-01-08T03:02:21.345Z,-2.80
2018-01-08T03:04:49.652Z,-2.80
2018-01-08T03:07:17.920Z,-2.70
2018-01-08T03:09:46.639Z,-2.80
2018-01-08T03:12:14.963Z,-2.80
2018-01-08T03:14:44.777Z,-2.70
2018-01-08T03:17:13.528Z,-2.80
2018-01-08T03:19:42.285Z,-2.80
2018-01-08T03:22:10.657Z,-2.90
2018-01-08T03:24:39.798Z,-2.90
2018-01-08T03:27:09.019Z,-2.80
2018-01-08T03:29:37.854Z,-2.80
2018-01-08T03:32:06.396Z,-2.80
2018-01-08T03:34:34.981Z,-2.90
2018-01-08T03:37:03.381Z,-2.90
2018-01-08T03:39:31.724Z,-2.90
2018-01-08T03:42:00.602Z,-2.90
2018-01-08T03:44:28.856Z,-2.90
2018-01-08T03:46:57.120Z,-2.80
2018-01-08T03:49:25.553Z,-2.80
2018-01-08T03:51:54.221Z,-2.80
2018-01-08T03:54:22.880Z,-2.80
2018-01-08T03:56:51.195Z,-2.80
2018-01-08T03:59:19.968Z,-2.80
2018-01-08T04:01:49.298Z,-2.90
2018-01-08T04:04:17.569Z,-3.00
2018-01-08T04:06:45.846Z,-2.90
2018-01-08T04:09:15.217Z,-3.00
2018-01-08T04:11:43.923Z,-3.00
2018-01-08T04:14:12.508Z,-3.00
2018-01-08T04:16:42.005Z,-3.10
2018-01-08T04:19:10.574Z,-3.10
2018-01-08T04:21:38.929Z,-3.00
2018-01-08T04:24:09.494Z,-3.00
2018-01-08T04:26:38.313Z,-3.00
2018-01-08T04:29:06.778Z,-3.10
2018-01-08T04:31:35.244Z,-3.10
2018-01-08T04:34:03.533Z,-3.10
2018-01-08T04:36:32.171Z,-3.20
2018-01-08T04:39:01.477Z,-3.20
2018-01-08T04:41:29.761Z,-3.10
2018-01-08T04:43:58.376Z,-3.00
2018-01-08T04:46:26.733Z,-3.00
2018-01-08T04:48:55.372Z,-3.00
2018-01-08T04:51:24.167Z,-3.00
2018-01-08T04:53:52.533Z,-3.00
2018-01-08T04:56:21.051Z,-3.10
2018-01-08T04:58:50.224Z,-3.10
2018-01-08T05:01:18.640Z,-3.10
2018-01-08T05:03:47.008Z,-3.10
2018-01-08T05:06:16.100Z,-3.10
2018-01-08T05:08:44.789Z,-3.20
2018-01-08T05:11:13.973Z,-3.10
2018-01-08T05:13:43.217Z,-3.10
2018-01-08T05:16:11.806Z,-3.20
2018-01-08T05:18:40.107Z,-3.20
2018-01-08T05:21:08.576Z,-3.20
2018-01-08T05:23:37.001Z,-3.10
2018-01-08T05:26:05.444Z,-3.20
2018-01-08T05:28:34.345Z,-3.20
2018-01-08T05:31:03.013Z,-3.20
2018-01-08T05:33:31.820Z,-3.20
2018-01-08T05:36:00.141Z,-3.20
2018-01-08T05:38:28.924Z,-3.20
2018-01-08T05:40:57.542Z,-3.20
2018-01-08T05:43:26.546Z,-3.10
2018-01-08T05:45:55.107Z,-3.20
2018-01-08T05:48:24.177Z,-3.20
2018-01-08T05:50:53.993Z,-3.20
2018-01-08T05:53:22.554Z,-3.30
2018-01-08T05:55:51.384Z,-3.30
2018-01-08T05:58:19.668Z,-3.40
2018-01-08T06:00:47.961Z,-3.40
2018-01-08T06:03:16.595Z,-3.40
2018-01-08T06:05:46.038Z,-3.40
2018-01-08T06:08:14.522Z,-3.40
2018-01-08T06:10:43.098Z,-3.40
2018-01-08T06:13:11.457Z,-3.30
2018-01-08T06:15:40.170Z,-3.30
2018-01-08T06:18:08.468Z,-3.30
2018-01-08T06:20:37.240Z,-3.30
2018-01-08T06:23:05.745Z,-3.30
2018-01-08T06:25:34.029Z,-3.40
2018-01-08T06:28:02.953Z,-3.40
2018-01-08T06:30:32.029Z,-3.40
2018-01-08T06:33:01.033Z,-3.50
2018-01-08T06:35:30.449Z,-3.50
2018-01-08T06:37:59.929Z,-3.50
2018-01-08T06:40:28.570Z,-3.60
2018-01-08T06:42:57.621Z,-3.60
2018-01-08T06:45:26.358Z,-3.60
2018-01-08T06:47:54.666Z,-3.60
2018-01-08T06:50:23.659Z,-3.50
2018-01-08T06:52:52.461Z,-3.30
2018-01-08T06:55:21.510Z,-3.30
2018-01-08T06:57:49.945Z,-3.20
2018-01-08T07:00:19.542Z,-3.10
2018-01-08T07:02:47.821Z,-3.10
2018-01-08T07:05:16.848Z,-3.20
2018-01-08T07:07:45.281Z,-3.30
2018-01-08T07:10:15.834Z,-3.30
2018-01-08T07:12:44.362Z,-3.40
2018-01-08T07:15:13.383Z,-3.50
2018-01-08T07:17:42.148Z,-3.50
2018-01-08T07:20:10.428Z,-3.40
2018-01-08T07:22:39.273Z,-3.40
2018-01-08T07:25:07.565Z,-3.30
2018-01-08T07:27:35.840Z,-3.40
2018-01-08T07:30:04.301Z,-3.40
2018-01-08T07:32:33.228Z,-3.30
2018-01-08T07:35:01.718Z,-3.40
2018-01-08T07:37:29.997Z,-3.40
2018-01-08T07:39:58.400Z,-3.40
2018-01-08T07:42:27.188Z,-3.40
2018-01-08T07:44:55.492Z,-3.50
2018-01-08T07:47:24.497Z,-3.40
2018-01-08T07:49:52.793Z,-3.50
2018-01-08T07:52:21.077Z,-3.50
2018-01-08T07:54:49.365Z,-3.30
2018-01-08T07:57:17.648Z,-3.40
2018-01-08T07:59:46.226Z,-3.70
2018-01-08T08:02:14.669Z,-3.40
2018-01-08T08:04:43.697Z,-3.40
2018-01-08T08:07:11.982Z,-3.40
2018-01-08T08:09:40.313Z,-3.30
2018-01-08T08:12:09.377Z,-3.20
2018-01-08T08:14:37.654Z,-3.10
2018-01-08T08:17:05.938Z,-3.10
2018-01-08T08:19:34.225Z,-3.10
2018-01-08T08:22:02.613Z,-3.10
2018-01-08T08:24:31.676Z,-3.00
2018-01-08T08:26:59.970Z,-2.90
2018-01-08T08:29:28.262Z,-2.80
2018-01-08T08:31:56.560Z,-2.70
2018-01-08T08:34:24.829Z,-2.70
2018-01-08T08:36:53.121Z,-2.60
2018-01-08T08:39:21.439Z,-2.60
2018-01-08T08:41:49.910Z,-2.50
2018-01-08T08:44:18.772Z,-2.40
2018-01-08T08:46:47.049Z,-2.50
2018-01-08T08:49:15.750Z,-2.40
2018-01-08T08:51:44.025Z,-2.40
2018-01-08T08:54:12.419Z,-2.30
2018-01-08T08:56:40.712Z,-2.10
2018-01-08T08:59:09.170Z,-2.00
2018-01-08T09:01:37.448Z,-2.00
2018-01-08T09:04:05.737Z,-2.00
2018-01-08T09:06:34.021Z,-1.90
2018-01-08T09:09:02.941Z,-1.80
2018-01-08T09:11:31.953Z,-1.80
2018-01-08T09:14:00.857Z,-1.80
2018-01-08T09:16:29.181Z,-1.70
2018-01-08T09:18:57.789Z,-1.60
2018-01-08T09:21:26.837Z,-1.50
2018-01-08T09:23:55.418Z,-1.40
2018-01-08T09:26:24.628Z,-1.30
2018-01-08T09:28:53.063Z,-1.20
2018-01-08T09:31:21.349Z,-1.10
2018-01-08T09:33:49.821Z,-1.10
2018-01-08T09:36:18.425Z,-1.10
2018-01-08T09:38:46.696Z,-1.00
2018-01-08T09:41:14.985Z,-0.90
2018-01-08T09:43:43.273Z,-0.80
2018-01-08T09:46:11.532Z,-0.80
2018-01-08T09:48:40.753Z,-0.70
2018-01-08T09:51:09.296Z,-0.70
2018-01-08T09:53:38.044Z,-0.60
2018-01-08T09:56:06.345Z,-0.50
2018-01-08T09:58:35.396Z,-0.50
2018-01-08T10:01:04.002Z,-0.40
2018-01-08T10:03:49.197Z,-0.30
2018-01-08T10:06:35.254Z,-0.10
2018-01-08T10:09:20.564Z,-0.10
2018-01-08T10:12:06.081Z,-0.10
2018-01-08T10:14:51.814Z,-0.10
2018-01-08T10:17:37.154Z,-0.10
2018-01-08T10:20:05.561Z,0.00
2018-01-08T10:22:34.649Z,0.10
2018-01-08T10:25:02.984Z,0.10
2018-01-08T10:27:32.122Z,0.20
2018-01-08T10:30:00.780Z,0.30
2018-01-08T10:32:29.449Z,0.30
2018-01-08T10:34:58.068Z,0.30
2018-01-08T10:37:26.681Z,0.40
2018-01-08T10:39:54.989Z,0.50
2018-01-08T10:42:30.814Z,0.50
2018-01-08T10:45:05.092Z,0.70
2018-01-08T10:47:39.342Z,0.70
2018-01-08T10:50:13.432Z,0.70
2018-01-08T10:52:42.685Z,0.80
2018-01-08T10:55:12.690Z,0.80
2018-01-08T10:57:41.016Z,0.90
2018-01-08T11:00:10.273Z,1.00
2018-01-08T11:04:50.476Z,1.10
2018-01-08T11:07:19.241Z,0.90
2018-01-08T11:09:48.417Z,1.10
2018-01-08T11:12:16.729Z,1.10
2018-01-08T11:14:45.137Z,1.10
2018-01-08T11:17:13.508Z,1.20
2018-01-08T11:19:41.801Z,1.20
2018-01-08T11:22:10.164Z,1.30
2018-01-08T11:24:38.488Z,1.40
2018-01-08T11:27:06.797Z,1.50
2018-01-08T11:29:35.353Z,1.50
2018-01-08T11:32:05.074Z,1.60
2018-01-08T11:34:33.407Z,1.50
2018-01-08T11:37:01.844Z,1.60
2018-01-08T11:39:30.280Z,1.70
2018-01-08T11:41:58.728Z,1.70
2018-01-08T11:44:27.129Z,1.70
2018-01-08T11:46:55.554Z,1.70
2018-01-08T11:49:24.732Z,1.80
2018-01-08T11:51:53.120Z,1.70
2018-01-08T11:54:22.738Z,1.80
2018-01-08T11:56:51.909Z,1.80
2018-01-08T11:59:20.301Z,1.70
2018-01-08T12:01:48.662Z,1.80
2018-01-08T12:04:17.018Z,1.80
2018-01-08T12:06:45.458Z,1.70
2018-01-08T12:09:13.865Z,1.80
2018-01-08T12:11:42.274Z,1.90
2018-01-08T12:14:10.746Z,1.90
2018-01-08T12:16:39.226Z,2.00
2018-01-08T12:19:07.617Z,1.90
2018-01-08T12:21:35.995Z,1.90
2018-01-08T12:24:04.366Z,1.90
2018-01-08T12:26:32.759Z,1.90
2018-01-08T12:29:01.089Z,2.00
2018-01-08T12:31:29.428Z,2.00
2018-01-08T12:33:57.756Z,2.00
2018-01-08T12:36:26.449Z,2.10
2018-01-08T12:38:54.744Z,2.00
2018-01-08T12:41:23.422Z,2.10
2018-01-08T12:43:51.784Z,2.10
2018-01-08T12:46:20.953Z,2.00
2018-01-08T12:48:50.009Z,2.10
2018-01-08T12:51:18.631Z,2.10
2018-01-08T12:53:47.725Z,2.30
2018-01-08T12:56:16.735Z,2.20
2018-01-08T12:58:45.823Z,2.20
2018-01-08T13:01:14.970Z,2.20
2018-01-08T13:03:43.337Z,2.20
2018-01-08T13:06:12.265Z,2.20
2018-01-08T13:08:42.176Z,2.10
2018-01-08T13:11:10.501Z,2.10
2018-01-08T13:13:38.838Z,2.00
2018-01-08T13:16:07.117Z,1.90
2018-01-08T13:18:35.446Z,1.90
2018-01-08T13:21:03.786Z,1.90
2018-01-08T13:23:32.144Z,2.00
2018-01-08T13:26:00.499Z,1.90
2018-01-08T13:28:28.800Z,1.90
2018-01-08T13:30:57.245Z,1.90
2018-01-08T13:33:26.016Z,1.80
2018-01-08T13:35:55.328Z,2.00
2018-01-08T13:38:23.876Z,2.00
2018-01-08T13:40:52.238Z,1.90
2018-01-08T13:43:20.617Z,1.90
2018-01-08T13:45:49.445Z,1.90
2018-01-08T13:48:17.853Z,1.90
2018-01-08T13:50:46.206Z,1.80
2018-01-08T13:53:14.625Z,1.90
2018-01-08T13:55:43.152Z,1.80
2018-01-08T13:58:12.321Z,1.80
2018-01-08T14:00:41.136Z,1.80
2018-01-08T14:03:09.574Z,1.90
2018-01-08T14:05:38.037Z,1.80
2018-01-08T14:08:06.516Z,1.80
2018-01-08T14:10:35.011Z,1.80
2018-01-08T14:13:03.702Z,1.80
2018-01-08T14:15:32.863Z,1.70
2018-01-08T14:18:02.270Z,1.80
2018-01-08T14:20:30.594Z,1.80
2018-01-08T14:22:59.305Z,1.80
2018-01-08T14:25:27.624Z,1.70
2018-01-08T14:27:56.655Z,1.70
2018-01-08T14:30:25.938Z,1.70
2018-01-08T14:32:54.445Z,1.60
2018-01-08T14:35:22.865Z,1.70
2018-01-08T14:37:51.196Z,1.70
2018-01-08T14:40:19.724Z,1.70
2018-01-08T14:43:20.116Z,1.70
2018-01-08T14:45:49.937Z,1.60
2018-01-08T14:48:18.228Z,1.60
2018-01-08T14:50:47.389Z,1.50
2018-01-08T14:53:15.719Z,1.50
2018-01-08T14:55:44.198Z,1.50
2018-01-08T14:58:12.677Z,1.50
2018-01-08T15:00:41.378Z,1.50
2018-01-08T15:03:09.723Z,1.40
2018-01-08T15:05:38.012Z,1.30
2018-01-08T15:08:07.221Z,1.30
2018-01-08T15:10:37.213Z,1.20
2018-01-08T15:13:05.594Z,1.10
2018-01-08T15:15:34.330Z,1.10
2018-01-08T15:18:03.949Z,1.00
2018-01-08T15:20:32.312Z,1.00
2018-01-08T15:23:00.716Z,0.90
2018-01-08T15:25:29.298Z,1.00
2018-01-08T15:27:57.609Z,0.90
2018-01-08T15:30:26.473Z,0.90
2018-01-08T15:32:54.753Z,0.80
2018-01-08T15:35:23.258Z,0.20
2018-01-08T15:37:52.509Z,0.70
2018-01-08T15:40:20.809Z,0.70
2018-01-08T15:42:49.348Z,0.70
2018-01-08T15:45:17.868Z,0.60
2018-01-08T15:47:46.504Z,0.50
2018-01-08T15:50:15.293Z,0.50
2018-01-08T15:52:44.320Z,0.50
2018-01-08T15:55:13.233Z,0.50
2018-01-08T15:57:41.737Z,0.50
2018-01-08T16:00:10.252Z,0.40
2018-01-08T16:02:39.800Z,0.30
2018-01-08T16:05:08.816Z,0.40
2018-01-08T16:07:56.649Z,0.30
2018-01-08T16:10:25.388Z,0.30
2018-01-08T16:12:53.707Z,0.30
2018-01-08T16:15:22.055Z,0.30
2018-01-08T16:17:50.514Z,0.30
2018-01-08T16:20:19.694Z,0.30
2018-01-08T16:22:48.365Z,0.20
2018-01-08T16:25:16.661Z,0.20
2018-01-08T16:27:45.089Z,0.20
2018-01-08T16:30:13.378Z,0.30
2018-01-08T16:32:42.881Z,0.20
2018-01-08T16:35:11.213Z,0.20
2018-01-08T16:37:39.657Z,0.20
2018-01-08T16:40:08.685Z,0.10
2018-01-08T16:42:37.689Z,0.10
2018-01-08T16:45:05.994Z,0.20
2018-01-08T16:47:34.268Z,0.10
2018-01-08T16:50:02.555Z,0.10
2018-01-08T16:52:30.888Z,0.10
2018-01-08T16:55:00.495Z,0.10
2018-01-08T16:57:29.747Z,0.10
2018-01-08T16:59:58.017Z,0.00
2018-01-08T17:02:26.612Z,0.20
2018-01-08T17:04:54.910Z,0.10
2018-01-08T17:07:23.776Z,0.00
2018-01-08T17:09:52.885Z,0.00
2018-01-08T17:12:21.222Z,-0.10
2018-01-08T17:14:49.527Z,0.00
2018-01-08T17:17:17.821Z,0.00
2018-01-08T17:19:46.160Z,0.00
2018-01-08T17:22:15.600Z,0.00
2018-01-08T17:24:44.033Z,0.00
2018-01-08T17:27:12.332Z,0.00
2018-01-08T17:29:40.630Z,0.00
2018-01-08T17:32:08.948Z,0.00
2018-01-08T17:34:38.040Z,-0.10
2018-01-08T17:37:07.062Z,-0.20
2018-01-08T17:39:37.271Z,-0.20
2018-01-08T17:42:05.558Z,-0.20
2018-01-08T17:44:35.320Z,-0.20
2018-01-08T17:47:03.613Z,-0.20
2018-01-08T17:49:32.293Z,-0.20
2018-01-08T17:52:00.575Z,-0.20
2018-01-08T17:54:29.104Z,-0.20
2018-01-08T17:56:57.521Z,-0.20
2018-01-08T17:59:25.801Z,-0.30
2018-01-08T18:01:54.103Z,-0.10
2018-01-08T18:04:24.500Z,-0.10
2018-01-08T18:06:52.842Z,-0.20
2018-01-08T18:09:21.132Z,-0.20
2018-01-08T18:11:49.659Z,-0.20
2018-01-08T18:14:18.050Z,-0.20
2018-01-08T18:16:47.093Z,-0.30
2018-01-08T18:19:15.409Z,-0.30
2018-01-08T18:21:43.713Z,-0.20
2018-01-08T18:24:12.002Z,-0.20
2018-01-08T18:26:40.265Z,-0.20
2018-01-08T18:29:08.956Z,-0.30
2018-01-08T18:31:37.222Z,-0.30
2018-01-08T18:34:06.289Z,-0.30
2018-01-08T18:36:34.585Z,-0.30
2018-01-08T18:39:03.683Z,-0.40
2018-01-08T18:41:32.733Z,-0.40
2018-01-08T18:44:01.044Z,-0.30
2018-01-08T18:46:29.693Z,-0.30
2018-01-08T18:48:58.348Z,-0.30
2018-01-08T18:51:26.628Z,-0.30
2018-01-08T18:53:54.966Z,-0.30
2018-01-08T18:56:23.250Z,-0.30
2018-01-08T18:58:51.355Z,-0.30
2018-01-08T19:01:19.552Z,-0.30
2018-01-08T19:03:47.662Z,-0.30
2018-01-08T19:06:16.013Z,-0.30
2018-01-08T19:11:43.742Z,-0.40
2018-01-08T19:14:13.223Z,-0.40
2018-01-08T19:16:41.448Z,-0.40
2018-01-08T19:19:10.317Z,-0.40
2018-01-08T19:21:38.489Z,-0.40
2018-01-08T19:24:07.053Z,-0.40
2018-01-08T19:26:35.221Z,-0.40
2018-01-08T19:29:03.881Z,-0.40
2018-01-08T19:31:32.073Z,-0.40
2018-01-08T19:34:00.262Z,-0.40
2018-01-08T19:36:28.422Z,-0.50
2018-01-08T19:38:57.347Z,-0.40
2018-01-08T19:41:25.566Z,-0.40
2018-01-08T19:43:53.766Z,-0.40
2018-01-08T19:46:21.934Z,-0.30
2018-01-08T19:48:50.099Z,-0.30
2018-01-08T19:51:18.480Z,-0.30
2018-01-08T19:53:47.146Z,-0.30
2018-01-08T19:56:15.307Z,-0.30
2018-01-08T19:58:45.546Z,-0.30
2018-01-08T20:01:13.719Z,-0.40
2018-01-08T20:03:41.886Z,-0.30
2018-01-08T20:06:10.234Z,-0.30
2018-01-08T20:08:39.149Z,-0.40
2018-01-08T20:11:08.084Z,-0.40
2018-01-08T20:13:36.257Z,-0.40
2018-01-08T20:16:04.552Z,-0.40
2018-01-08T20:18:33.151Z,-0.40
2018-01-08T20:21:02.111Z,-0.50
2018-01-08T20:23:30.298Z,-0.50
2018-01-08T20:25:58.606Z,-0.50
2018-01-08T20:28:26.814Z,-0.50
2018-01-08T20:30:55.070Z,-0.50
2018-01-08T20:33:24.267Z,-0.50
2018-01-08T20:35:52.457Z,-0.60
2018-01-08T20:38:20.882Z,-0.50
2018-01-08T20:40:49.678Z,-0.50
2018-01-08T20:43:17.862Z,-0.40
2018-01-08T20:45:46.262Z,-0.40
2018-01-08T20:48:14.854Z,-0.60
2018-01-08T20:50:44.659Z,-0.60
2018-01-08T20:53:12.879Z,-0.70
2018-01-08T20:55:41.047Z,-0.80
2018-01-08T20:58:10.138Z,-0.70
2018-01-08T21:00:38.338Z,-0.70
2018-01-08T21:03:07.403Z,-0.70
2018-01-08T21:05:35.582Z,-0.70
2018-01-08T21:08:04.588Z,-0.60
2018-01-08T21:10:33.225Z,-0.60
2018-01-08T21:13:03.041Z,-0.70
2018-01-08T21:15:31.205Z,-0.80
2018-01-08T21:18:00.201Z,-0.80
2018-01-08T21:20:28.382Z,-0.70
2018-01-08T21:22:56.575Z,-0.80
2018-01-08T21:25:24.771Z,-0.80
2018-01-08T21:27:53.664Z,-0.80
2018-01-08T21:30:21.895Z,-0.80
2018-01-08T21:32:50.805Z,-0.80
2018-01-08T21:35:18.992Z,-0.80
2018-01-08T21:37:47.193Z,-0.90
2018-01-08T21:40:16.423Z,-0.80
2018-01-08T21:42:44.634Z,-0.90
2018-01-08T21:45:13.730Z,-0.90
2018-01-08T21:47:42.209Z,-0.90
2018-01-08T21:50:10.490Z,-0.80
2018-01-08T21:52:38.662Z,-0.80
2018-01-08T21:55:07.102Z,-0.80
2018-01-08T21:57:35.306Z,-0.90
2018-01-08T22:00:04.466Z,-0.90
2018-01-08T22:02:32.717Z,-0.90
2018-01-08T22:05:00.874Z,-0.90
2018-01-08T22:07:29.021Z,-1.00
2018-01-08T22:09:57.960Z,-1.00
2018-01-08T22:12:26.867Z,-1.00
2018-01-08T22:14:55.057Z,-1.00
2018-01-08T22:17:23.217Z,-0.90
2018-01-08T22:19:51.982Z,-0.90
2018-01-08T22:22:20.202Z,-0.90
2018-01-08T22:24:48.356Z,-0.90
2018-01-08T22:27:16.686Z,-0.90
2018-01-08T22:29:45.482Z,-0.90
2018-01-08T22:32:13.707Z,-0.80
2018-01-08T22:34:42.378Z,-0.80
2018-01-08T22:37:11.034Z,-0.90
2018-01-08T22:39:39.909Z,-0.80
2018-01-08T22:42:08.371Z,-0.90
2018-01-08T22:44:36.567Z,-0.90
2018-01-08T22:47:05.018Z,-0.80
2018-01-08T22:49:33.198Z,-0.90
2018-01-08T22:52:01.395Z,-0.80
2018-01-08T22:54:29.553Z,-0.90
2018-01-08T22:56:57.777Z,-0.80
2018-01-08T22:59:26.437Z,-0.80
2018-01-08T23:01:54.673Z,-0.80
2018-01-08T23:04:23.566Z,-0.80
2018-01-08T23:06:51.758Z,-0.80
2018-01-08T23:09:20.655Z,-0.80
2018-01-08T23:11:49.109Z,-0.90
2018-01-08T23:14:18.022Z,-0.90
2018-01-08T23:16:47.034Z,-0.90
2018-01-08T23:19:15.302Z,-0.80
2018-01-08T23:21:44.160Z,-0.90
2018-01-08T23:24:12.775Z,-1.00
2018-01-08T23:26:41.347Z,-0.90
2018-01-08T23:29:09.622Z,-0.90
2018-01-08T23:31:39.100Z,-0.90
2018-01-08T23:34:07.285Z,-0.90
2018-01-08T23:36:35.525Z,-1.00
2018-01-08T23:39:05.166Z,-1.00
2018-01-08T23:41:33.934Z,-0.90
2018-01-08T23:44:02.807Z,-1.20
2018-01-08T23:46:32.006Z,-1.00
2018-01-08T23:49:00.170Z,-1.00
2018-01-08T23:51:28.516Z,-1.00
2018-01-08T23:53:56.904Z,-0.90
2018-01-08T23:56:26.209Z,-1.00
2018-01-08T23:58:54.857Z,-1.00
